sensor_id;sensor_type;location;lat;lon;timestamp;P1;durP1;ratioP1;P2;durP2;ratioP2
9940;SDS011;5009;50.656;7.188;2022-09-09T00:04:04;5.68;;;1.80;;
9940;SDS011;5009;50.656;7.188;2022-09-09T00:09:19;6.25;;;2.10;;
9940;SDS011;5009;50.656;7.188;2022-09-09T00:14:48;4.95;;;2.00;;
9940;SDS011;5009;50.656;7.188;2022-09-09T00:19:54;3.45;;;1.67;;
9940;SDS011;5009;50.656;7.188;2022-09-09T00:22:38;3.33;;;1.77;;
9940;SDS011;5009;50.656;7.188;2022-09-09T00:25:12;4.05;;;1.80;;
9940;SDS011;5009;50.656;7.188;2022-09-09T00:27:49;1.33;;;1.23;;
9940;SDS011;5009;50.656;7.188;2022-09-09T00:30:19;3.65;;;1.73;;
9940;SDS011;5009;50.656;7.188;2022-09-09T00:32:55;3.60;;;1.67;;
9940;SDS011;5009;50.656;7.188;2022-09-09T00:35:29;2.78;;;1.52;;
9940;SDS011;5009;50.656;7.188;2022-09-09T00:38:00;5.65;;;1.98;;
9940;SDS011;5009;50.656;7.188;2022-09-09T00:40:37;2.70;;;1.45;;
9940;SDS011;5009;50.656;7.188;2022-09-09T00:43:15;3.35;;;1.65;;
9940;SDS011;5009;50.656;7.188;2022-09-09T00:48:27;4.10;;;1.55;;
9940;SDS011;5009;50.656;7.188;2022-09-09T00:51:15;4.78;;;1.88;;
9940;SDS011;5009;50.656;7.188;2022-09-09T00:56:37;4.97;;;2.00;;
9940;SDS011;5009;50.656;7.188;2022-09-09T00:59:16;1.85;;;1.50;;
9940;SDS011;5009;50.656;7.188;2022-09-09T01:01:55;4.50;;;1.90;;
9940;SDS011;5009;50.656;7.188;2022-09-09T01:04:23;4.28;;;1.70;;
9940;SDS011;5009;50.656;7.188;2022-09-09T01:07:12;6.60;;;2.03;;
9940;SDS011;5009;50.656;7.188;2022-09-09T01:09:58;3.20;;;1.73;;
9940;SDS011;5009;50.656;7.188;2022-09-09T01:12:38;7.50;;;1.90;;
9940;SDS011;5009;50.656;7.188;2022-09-09T01:15:17;2.53;;;1.60;;
9940;SDS011;5009;50.656;7.188;2022-09-09T01:20:21;1.75;;;1.33;;
9940;SDS011;5009;50.656;7.188;2022-09-09T01:28:39;2.65;;;1.80;;
9940;SDS011;5009;50.656;7.188;2022-09-09T01:31:07;2.72;;;1.52;;
9940;SDS011;5009;50.656;7.188;2022-09-09T01:33:36;4.35;;;1.95;;
9940;SDS011;5009;50.656;7.188;2022-09-09T01:36:03;3.92;;;2.00;;
9940;SDS011;5009;50.656;7.188;2022-09-09T01:38:46;1.85;;;1.73;;
9940;SDS011;5009;50.656;7.188;2022-09-09T01:41:12;2.67;;;1.88;;
9940;SDS011;5009;50.656;7.188;2022-09-09T01:43:37;3.22;;;1.65;;
9940;SDS011;5009;50.656;7.188;2022-09-09T01:46:03;5.22;;;2.05;;
9940;SDS011;5009;50.656;7.188;2022-09-09T01:48:29;3.08;;;1.27;;
9940;SDS011;5009;50.656;7.188;2022-09-09T01:50:56;5.10;;;2.05;;
9940;SDS011;5009;50.656;7.188;2022-09-09T01:53:21;1.55;;;1.33;;
9940;SDS011;5009;50.656;7.188;2022-09-09T01:58:31;3.40;;;1.45;;
9940;SDS011;5009;50.656;7.188;2022-09-09T02:03:43;2.25;;;1.48;;
9940;SDS011;5009;50.656;7.188;2022-09-09T02:06:27;2.70;;;1.85;;
9940;SDS011;5009;50.656;7.188;2022-09-09T02:08:59;4.30;;;1.58;;
9940;SDS011;5009;50.656;7.188;2022-09-09T02:11:29;4.43;;;1.85;;
9940;SDS011;5009;50.656;7.188;2022-09-09T02:14:06;4.10;;;2.03;;
9940;SDS011;5009;50.656;7.188;2022-09-09T02:16:42;3.83;;;1.80;;
9940;SDS011;5009;50.656;7.188;2022-09-09T02:21:52;2.20;;;1.80;;
9940;SDS011;5009;50.656;7.188;2022-09-09T02:24:20;4.32;;;1.63;;
9940;SDS011;5009;50.656;7.188;2022-09-09T02:26:47;4.38;;;2.15;;
9940;SDS011;5009;50.656;7.188;2022-09-09T02:29:16;4.63;;;1.60;;
9940;SDS011;5009;50.656;7.188;2022-09-09T02:32:04;3.13;;;1.75;;
9940;SDS011;5009;50.656;7.188;2022-09-09T02:34:35;4.25;;;1.80;;
9940;SDS011;5009;50.656;7.188;2022-09-09T02:37:06;4.82;;;1.95;;
9940;SDS011;5009;50.656;7.188;2022-09-09T02:39:34;2.63;;;1.92;;
9940;SDS011;5009;50.656;7.188;2022-09-09T02:42:00;1.65;;;1.55;;
9940;SDS011;5009;50.656;7.188;2022-09-09T02:44:25;4.53;;;1.80;;
9940;SDS011;5009;50.656;7.188;2022-09-09T02:50:02;4.68;;;1.92;;
9940;SDS011;5009;50.656;7.188;2022-09-09T02:52:45;5.60;;;2.00;;
9940;SDS011;5009;50.656;7.188;2022-09-09T02:55:37;2.85;;;1.75;;
9940;SDS011;5009;50.656;7.188;2022-09-09T02:58:05;3.47;;;1.67;;
9940;SDS011;5009;50.656;7.188;2022-09-09T03:00:36;3.60;;;2.10;;
9940;SDS011;5009;50.656;7.188;2022-09-09T03:03:06;4.03;;;2.08;;
9940;SDS011;5009;50.656;7.188;2022-09-09T03:05:33;3.08;;;1.60;;
9940;SDS011;5009;50.656;7.188;2022-09-09T03:07:59;3.67;;;2.10;;
9940;SDS011;5009;50.656;7.188;2022-09-09T03:10:25;4.10;;;1.90;;
9940;SDS011;5009;50.656;7.188;2022-09-09T03:12:50;2.70;;;1.85;;
9940;SDS011;5009;50.656;7.188;2022-09-09T03:15:16;4.13;;;1.95;;
9940;SDS011;5009;50.656;7.188;2022-09-09T03:17:42;4.05;;;2.00;;
9940;SDS011;5009;50.656;7.188;2022-09-09T03:20:07;3.78;;;1.90;;
9940;SDS011;5009;50.656;7.188;2022-09-09T03:22:33;4.35;;;1.80;;
9940;SDS011;5009;50.656;7.188;2022-09-09T03:24:59;3.20;;;1.98;;
9940;SDS011;5009;50.656;7.188;2022-09-09T03:27:26;2.10;;;1.60;;
9940;SDS011;5009;50.656;7.188;2022-09-09T03:29:52;2.28;;;1.77;;
9940;SDS011;5009;50.656;7.188;2022-09-09T03:32:18;4.70;;;1.80;;
9940;SDS011;5009;50.656;7.188;2022-09-09T03:34:44;3.30;;;1.92;;
9940;SDS011;5009;50.656;7.188;2022-09-09T03:37:10;6.07;;;2.03;;
9940;SDS011;5009;50.656;7.188;2022-09-09T03:39:36;4.43;;;1.88;;
9940;SDS011;5009;50.656;7.188;2022-09-09T03:42:02;2.50;;;1.50;;
9940;SDS011;5009;50.656;7.188;2022-09-09T03:44:30;3.33;;;1.40;;
9940;SDS011;5009;50.656;7.188;2022-09-09T03:46:56;5.10;;;2.25;;
9940;SDS011;5009;50.656;7.188;2022-09-09T03:49:21;5.00;;;2.00;;
9940;SDS011;5009;50.656;7.188;2022-09-09T03:51:48;6.13;;;2.03;;
9940;SDS011;5009;50.656;7.188;2022-09-09T03:54:13;3.58;;;1.85;;
9940;SDS011;5009;50.656;7.188;2022-09-09T03:56:39;2.45;;;1.95;;
9940;SDS011;5009;50.656;7.188;2022-09-09T03:59:06;5.07;;;1.90;;
9940;SDS011;5009;50.656;7.188;2022-09-09T04:01:33;3.95;;;1.98;;
9940;SDS011;5009;50.656;7.188;2022-09-09T04:03:59;2.72;;;1.80;;
9940;SDS011;5009;50.656;7.188;2022-09-09T04:06:26;2.45;;;1.90;;
9940;SDS011;5009;50.656;7.188;2022-09-09T04:08:52;2.75;;;1.50;;
9940;SDS011;5009;50.656;7.188;2022-09-09T04:11:18;4.10;;;2.15;;
9940;SDS011;5009;50.656;7.188;2022-09-09T04:13:44;4.25;;;2.17;;
9940;SDS011;5009;50.656;7.188;2022-09-09T04:16:11;3.08;;;1.85;;
9940;SDS011;5009;50.656;7.188;2022-09-09T04:18:38;4.90;;;2.10;;
9940;SDS011;5009;50.656;7.188;2022-09-09T04:21:04;4.00;;;1.98;;
9940;SDS011;5009;50.656;7.188;2022-09-09T04:23:31;4.22;;;1.55;;
9940;SDS011;5009;50.656;7.188;2022-09-09T04:25:59;3.97;;;1.85;;
9940;SDS011;5009;50.656;7.188;2022-09-09T04:28:26;3.63;;;1.70;;
9940;SDS011;5009;50.656;7.188;2022-09-09T04:30:53;3.38;;;1.90;;
9940;SDS011;5009;50.656;7.188;2022-09-09T04:33:19;3.25;;;2.00;;
9940;SDS011;5009;50.656;7.188;2022-09-09T04:35:45;3.00;;;2.33;;
9940;SDS011;5009;50.656;7.188;2022-09-09T04:38:15;3.38;;;1.85;;
9940;SDS011;5009;50.656;7.188;2022-09-09T04:40:42;3.13;;;2.30;;
9940;SDS011;5009;50.656;7.188;2022-09-09T04:43:09;4.45;;;2.00;;
9940;SDS011;5009;50.656;7.188;2022-09-09T04:45:35;3.58;;;1.73;;
9940;SDS011;5009;50.656;7.188;2022-09-09T04:48:01;2.72;;;1.88;;
9940;SDS011;5009;50.656;7.188;2022-09-09T04:50:27;3.55;;;1.92;;
9940;SDS011;5009;50.656;7.188;2022-09-09T04:52:53;4.53;;;2.05;;
9940;SDS011;5009;50.656;7.188;2022-09-09T04:55:19;5.15;;;1.90;;
9940;SDS011;5009;50.656;7.188;2022-09-09T04:57:45;3.20;;;1.70;;
9940;SDS011;5009;50.656;7.188;2022-09-09T05:00:10;4.82;;;1.90;;
9940;SDS011;5009;50.656;7.188;2022-09-09T05:02:37;3.15;;;1.85;;
9940;SDS011;5009;50.656;7.188;2022-09-09T05:05:04;4.70;;;2.05;;
9940;SDS011;5009;50.656;7.188;2022-09-09T05:07:30;3.25;;;1.90;;
9940;SDS011;5009;50.656;7.188;2022-09-09T05:09:56;5.30;;;2.00;;
9940;SDS011;5009;50.656;7.188;2022-09-09T05:12:22;4.93;;;1.88;;
9940;SDS011;5009;50.656;7.188;2022-09-09T05:14:50;4.70;;;2.22;;
9940;SDS011;5009;50.656;7.188;2022-09-09T05:17:18;3.22;;;2.20;;
9940;SDS011;5009;50.656;7.188;2022-09-09T05:19:44;5.57;;;1.90;;
9940;SDS011;5009;50.656;7.188;2022-09-09T05:22:10;4.10;;;1.80;;
9940;SDS011;5009;50.656;7.188;2022-09-09T05:24:36;5.68;;;2.15;;
9940;SDS011;5009;50.656;7.188;2022-09-09T05:27:03;5.18;;;2.28;;
9940;SDS011;5009;50.656;7.188;2022-09-09T05:29:30;3.95;;;2.30;;
9940;SDS011;5009;50.656;7.188;2022-09-09T05:31:58;4.05;;;1.75;;
9940;SDS011;5009;50.656;7.188;2022-09-09T05:34:24;4.13;;;1.83;;
9940;SDS011;5009;50.656;7.188;2022-09-09T05:36:50;5.53;;;2.03;;
9940;SDS011;5009;50.656;7.188;2022-09-09T05:39:17;3.22;;;1.95;;
9940;SDS011;5009;50.656;7.188;2022-09-09T05:41:42;3.50;;;2.25;;
9940;SDS011;5009;50.656;7.188;2022-09-09T05:44:08;4.93;;;2.00;;
9940;SDS011;5009;50.656;7.188;2022-09-09T05:46:33;5.00;;;2.25;;
9940;SDS011;5009;50.656;7.188;2022-09-09T05:48:59;2.83;;;1.98;;
9940;SDS011;5009;50.656;7.188;2022-09-09T05:51:26;2.92;;;1.75;;
9940;SDS011;5009;50.656;7.188;2022-09-09T05:53:54;4.18;;;1.80;;
9940;SDS011;5009;50.656;7.188;2022-09-09T05:56:23;5.05;;;2.05;;
9940;SDS011;5009;50.656;7.188;2022-09-09T05:58:50;3.47;;;2.10;;
9940;SDS011;5009;50.656;7.188;2022-09-09T06:01:20;4.20;;;1.85;;
9940;SDS011;5009;50.656;7.188;2022-09-09T06:03:49;4.72;;;2.05;;
9940;SDS011;5009;50.656;7.188;2022-09-09T06:06:16;4.57;;;1.98;;
9940;SDS011;5009;50.656;7.188;2022-09-09T06:08:46;3.80;;;2.10;;
9940;SDS011;5009;50.656;7.188;2022-09-09T06:11:17;4.72;;;1.83;;
9940;SDS011;5009;50.656;7.188;2022-09-09T06:13:45;5.75;;;2.05;;
9940;SDS011;5009;50.656;7.188;2022-09-09T06:16:15;4.82;;;2.05;;
9940;SDS011;5009;50.656;7.188;2022-09-09T06:18:42;4.03;;;2.10;;
9940;SDS011;5009;50.656;7.188;2022-09-09T06:21:09;6.03;;;1.80;;
9940;SDS011;5009;50.656;7.188;2022-09-09T06:23:40;4.20;;;2.00;;
9940;SDS011;5009;50.656;7.188;2022-09-09T06:26:07;4.28;;;2.08;;
9940;SDS011;5009;50.656;7.188;2022-09-09T06:28:35;9.70;;;2.22;;
9940;SDS011;5009;50.656;7.188;2022-09-09T06:31:03;4.45;;;2.15;;
9940;SDS011;5009;50.656;7.188;2022-09-09T06:33:37;4.35;;;2.30;;
9940;SDS011;5009;50.656;7.188;2022-09-09T06:36:17;5.43;;;2.17;;
9940;SDS011;5009;50.656;7.188;2022-09-09T06:38:47;7.13;;;2.28;;
9940;SDS011;5009;50.656;7.188;2022-09-09T06:41:13;3.33;;;1.73;;
9940;SDS011;5009;50.656;7.188;2022-09-09T06:43:41;4.53;;;2.30;;
9940;SDS011;5009;50.656;7.188;2022-09-09T06:46:14;5.60;;;2.33;;
9940;SDS011;5009;50.656;7.188;2022-09-09T06:48:41;3.70;;;2.08;;
9940;SDS011;5009;50.656;7.188;2022-09-09T06:51:10;2.88;;;1.90;;
9940;SDS011;5009;50.656;7.188;2022-09-09T06:53:38;3.92;;;2.15;;
9940;SDS011;5009;50.656;7.188;2022-09-09T06:58:39;2.83;;;1.73;;
9940;SDS011;5009;50.656;7.188;2022-09-09T07:01:15;2.97;;;1.80;;
9940;SDS011;5009;50.656;7.188;2022-09-09T07:03:45;3.17;;;1.95;;
9940;SDS011;5009;50.656;7.188;2022-09-09T07:06:16;3.03;;;2.08;;
9940;SDS011;5009;50.656;7.188;2022-09-09T07:08:47;5.30;;;2.00;;
9940;SDS011;5009;50.656;7.188;2022-09-09T07:11:15;2.45;;;1.92;;
9940;SDS011;5009;50.656;7.188;2022-09-09T07:13:40;2.15;;;1.95;;
9940;SDS011;5009;50.656;7.188;2022-09-09T07:16:07;5.82;;;2.30;;
9940;SDS011;5009;50.656;7.188;2022-09-09T07:18:34;2.92;;;2.20;;
9940;SDS011;5009;50.656;7.188;2022-09-09T07:21:01;4.45;;;2.40;;
9940;SDS011;5009;50.656;7.188;2022-09-09T07:23:28;4.72;;;2.30;;
9940;SDS011;5009;50.656;7.188;2022-09-09T07:25:55;5.78;;;2.53;;
9940;SDS011;5009;50.656;7.188;2022-09-09T07:28:21;4.72;;;2.10;;
9940;SDS011;5009;50.656;7.188;2022-09-09T07:30:57;2.88;;;2.33;;
9940;SDS011;5009;50.656;7.188;2022-09-09T07:33:28;5.93;;;2.67;;
9940;SDS011;5009;50.656;7.188;2022-09-09T07:36:01;4.03;;;2.25;;
9940;SDS011;5009;50.656;7.188;2022-09-09T07:38:41;6.85;;;2.20;;
9940;SDS011;5009;50.656;7.188;2022-09-09T07:41:10;4.00;;;2.10;;
9940;SDS011;5009;50.656;7.188;2022-09-09T07:43:57;3.97;;;2.30;;
9940;SDS011;5009;50.656;7.188;2022-09-09T07:46:23;3.03;;;2.17;;
9940;SDS011;5009;50.656;7.188;2022-09-09T07:48:51;5.07;;;2.28;;
9940;SDS011;5009;50.656;7.188;2022-09-09T07:51:21;4.78;;;2.40;;
9940;SDS011;5009;50.656;7.188;2022-09-09T07:53:54;3.90;;;2.03;;
9940;SDS011;5009;50.656;7.188;2022-09-09T07:56:22;6.82;;;2.55;;
9940;SDS011;5009;50.656;7.188;2022-09-09T07:58:48;2.97;;;1.88;;
9940;SDS011;5009;50.656;7.188;2022-09-09T08:01:17;4.43;;;2.10;;
9940;SDS011;5009;50.656;7.188;2022-09-09T08:03:44;3.30;;;2.28;;
9940;SDS011;5009;50.656;7.188;2022-09-09T08:06:11;3.38;;;2.00;;
9940;SDS011;5009;50.656;7.188;2022-09-09T08:08:38;3.63;;;1.92;;
9940;SDS011;5009;50.656;7.188;2022-09-09T08:11:05;5.43;;;2.38;;
9940;SDS011;5009;50.656;7.188;2022-09-09T08:13:34;4.30;;;1.90;;
9940;SDS011;5009;50.656;7.188;2022-09-09T08:16:08;5.30;;;2.10;;
9940;SDS011;5009;50.656;7.188;2022-09-09T08:18:41;4.75;;;2.00;;
9940;SDS011;5009;50.656;7.188;2022-09-09T08:21:11;4.80;;;2.05;;
9940;SDS011;5009;50.656;7.188;2022-09-09T08:23:42;4.43;;;2.47;;
9940;SDS011;5009;50.656;7.188;2022-09-09T08:26:12;4.30;;;1.90;;
9940;SDS011;5009;50.656;7.188;2022-09-09T08:28:43;4.40;;;2.17;;
9940;SDS011;5009;50.656;7.188;2022-09-09T08:31:10;4.03;;;1.92;;
9940;SDS011;5009;50.656;7.188;2022-09-09T08:33:41;5.55;;;1.85;;
9940;SDS011;5009;50.656;7.188;2022-09-09T08:36:11;2.38;;;1.52;;
9940;SDS011;5009;50.656;7.188;2022-09-09T08:38:40;5.78;;;1.92;;
9940;SDS011;5009;50.656;7.188;2022-09-09T08:58:02;5.57;;;2.10;;
9940;SDS011;5009;50.656;7.188;2022-09-09T09:09:07;3.85;;;1.80;;
9940;SDS011;5009;50.656;7.188;2022-09-09T09:11:46;2.03;;;1.60;;
9940;SDS011;5009;50.656;7.188;2022-09-09T09:14:26;2.85;;;1.65;;
9940;SDS011;5009;50.656;7.188;2022-09-09T09:19:40;4.25;;;1.85;;
9940;SDS011;5009;50.656;7.188;2022-09-09T09:25:00;3.40;;;1.77;;
9940;SDS011;5009;50.656;7.188;2022-09-09T09:31:05;2.53;;;1.90;;
9940;SDS011;5009;50.656;7.188;2022-09-09T09:36:18;2.08;;;1.58;;
9940;SDS011;5009;50.656;7.188;2022-09-09T09:38:52;5.20;;;2.10;;
9940;SDS011;5009;50.656;7.188;2022-09-09T09:41:33;4.82;;;2.20;;
9940;SDS011;5009;50.656;7.188;2022-09-09T09:44:05;2.72;;;1.65;;
9940;SDS011;5009;50.656;7.188;2022-09-09T09:46:46;3.65;;;1.85;;
9940;SDS011;5009;50.656;7.188;2022-09-09T09:49:12;4.28;;;2.28;;
9940;SDS011;5009;50.656;7.188;2022-09-09T09:51:38;3.30;;;1.77;;
9940;SDS011;5009;50.656;7.188;2022-09-09T09:54:09;4.45;;;2.15;;
9940;SDS011;5009;50.656;7.188;2022-09-09T09:56:38;3.33;;;2.00;;
9940;SDS011;5009;50.656;7.188;2022-09-09T09:59:05;3.53;;;2.17;;
9940;SDS011;5009;50.656;7.188;2022-09-09T10:01:44;3.70;;;1.92;;
9940;SDS011;5009;50.656;7.188;2022-09-09T10:04:14;3.42;;;1.95;;
9940;SDS011;5009;50.656;7.188;2022-09-09T10:06:49;3.90;;;2.00;;
9940;SDS011;5009;50.656;7.188;2022-09-09T10:14:21;3.38;;;1.73;;
9940;SDS011;5009;50.656;7.188;2022-09-09T10:23:05;3.75;;;2.10;;
9940;SDS011;5009;50.656;7.188;2022-09-09T10:25:50;3.08;;;1.88;;
9940;SDS011;5009;50.656;7.188;2022-09-09T10:33:50;4.28;;;2.05;;
9940;SDS011;5009;50.656;7.188;2022-09-09T10:36:23;3.83;;;1.83;;
9940;SDS011;5009;50.656;7.188;2022-09-09T10:38:58;4.28;;;2.00;;
9940;SDS011;5009;50.656;7.188;2022-09-09T10:47:10;5.00;;;1.55;;
9940;SDS011;5009;50.656;7.188;2022-09-09T10:50:07;5.00;;;1.70;;
9940;SDS011;5009;50.656;7.188;2022-09-09T10:53:14;3.70;;;1.70;;
9940;SDS011;5009;50.656;7.188;2022-09-09T10:56:17;5.18;;;1.75;;
9940;SDS011;5009;50.656;7.188;2022-09-09T10:58:49;3.65;;;1.75;;
9940;SDS011;5009;50.656;7.188;2022-09-09T11:01:20;2.58;;;2.00;;
9940;SDS011;5009;50.656;7.188;2022-09-09T11:04:34;2.90;;;1.83;;
9940;SDS011;5009;50.656;7.188;2022-09-09T11:06:46;4.28;;;1.75;;
9940;SDS011;5009;50.656;7.188;2022-09-09T11:09:18;5.47;;;1.83;;
9940;SDS011;5009;50.656;7.188;2022-09-09T11:11:55;3.88;;;1.70;;
9940;SDS011;5009;50.656;7.188;2022-09-09T11:14:29;3.30;;;1.83;;
9940;SDS011;5009;50.656;7.188;2022-09-09T11:17:13;4.13;;;1.92;;
9940;SDS011;5009;50.656;7.188;2022-09-09T11:19:47;2.90;;;1.90;;
9940;SDS011;5009;50.656;7.188;2022-09-09T11:22:19;3.83;;;1.92;;
9940;SDS011;5009;50.656;7.188;2022-09-09T11:24:52;3.58;;;1.80;;
9940;SDS011;5009;50.656;7.188;2022-09-09T11:27:42;3.08;;;1.90;;
9940;SDS011;5009;50.656;7.188;2022-09-09T11:35:44;4.00;;;1.80;;
9940;SDS011;5009;50.656;7.188;2022-09-09T11:38:38;2.80;;;1.80;;
9940;SDS011;5009;50.656;7.188;2022-09-09T11:41:15;2.03;;;1.58;;
9940;SDS011;5009;50.656;7.188;2022-09-09T11:43:45;4.18;;;1.83;;
9940;SDS011;5009;50.656;7.188;2022-09-09T11:46:14;3.08;;;1.65;;
9940;SDS011;5009;50.656;7.188;2022-09-09T11:48:43;2.75;;;1.60;;
9940;SDS011;5009;50.656;7.188;2022-09-09T11:51:11;2.17;;;1.30;;
9940;SDS011;5009;50.656;7.188;2022-09-09T11:53:51;2.05;;;1.45;;
9940;SDS011;5009;50.656;7.188;2022-09-09T11:56:29;3.30;;;1.70;;
9940;SDS011;5009;50.656;7.188;2022-09-09T12:01:43;3.00;;;1.80;;
9940;SDS011;5009;50.656;7.188;2022-09-09T12:04:15;5.38;;;1.60;;
9940;SDS011;5009;50.656;7.188;2022-09-09T12:06:52;4.15;;;1.58;;
9940;SDS011;5009;50.656;7.188;2022-09-09T12:09:37;3.85;;;1.48;;
9940;SDS011;5009;50.656;7.188;2022-09-09T12:12:27;2.67;;;1.55;;
9940;SDS011;5009;50.656;7.188;2022-09-09T12:17:22;2.75;;;1.85;;
9940;SDS011;5009;50.656;7.188;2022-09-09T12:27:50;2.88;;;1.73;;
9940;SDS011;5009;50.656;7.188;2022-09-09T12:30:22;4.20;;;1.77;;
9940;SDS011;5009;50.656;7.188;2022-09-09T12:33:13;2.63;;;2.00;;
9940;SDS011;5009;50.656;7.188;2022-09-09T12:35:41;2.33;;;1.70;;
9940;SDS011;5009;50.656;7.188;2022-09-09T12:38:12;2.38;;;1.60;;
9940;SDS011;5009;50.656;7.188;2022-09-09T12:40:53;1.58;;;1.35;;
9940;SDS011;5009;50.656;7.188;2022-09-09T12:43:21;4.70;;;1.52;;
9940;SDS011;5009;50.656;7.188;2022-09-09T12:45:49;2.28;;;1.75;;
9940;SDS011;5009;50.656;7.188;2022-09-09T12:48:22;2.20;;;1.38;;
9940;SDS011;5009;50.656;7.188;2022-09-09T12:51:27;3.97;;;1.42;;
9940;SDS011;5009;50.656;7.188;2022-09-09T12:53:55;3.70;;;1.33;;
9940;SDS011;5009;50.656;7.188;2022-09-09T12:56:21;3.13;;;1.58;;
9940;SDS011;5009;50.656;7.188;2022-09-09T12:58:51;2.75;;;1.52;;
9940;SDS011;5009;50.656;7.188;2022-09-09T13:01:21;3.42;;;1.75;;
9940;SDS011;5009;50.656;7.188;2022-09-09T13:03:50;5.25;;;1.70;;
9940;SDS011;5009;50.656;7.188;2022-09-09T13:06:20;1.30;;;0.98;;
9940;SDS011;5009;50.656;7.188;2022-09-09T13:08:53;3.50;;;1.48;;
9940;SDS011;5009;50.656;7.188;2022-09-09T13:11:42;2.80;;;1.58;;
9940;SDS011;5009;50.656;7.188;2022-09-09T13:14:26;1.90;;;1.50;;
9940;SDS011;5009;50.656;7.188;2022-09-09T13:16:58;3.08;;;1.63;;
9940;SDS011;5009;50.656;7.188;2022-09-09T13:19:25;1.88;;;1.23;;
9940;SDS011;5009;50.656;7.188;2022-09-09T13:21:56;2.60;;;1.55;;
9940;SDS011;5009;50.656;7.188;2022-09-09T13:24:24;4.60;;;1.38;;
9940;SDS011;5009;50.656;7.188;2022-09-09T13:26:58;3.22;;;1.20;;
9940;SDS011;5009;50.656;7.188;2022-09-09T13:29:29;2.83;;;1.60;;
9940;SDS011;5009;50.656;7.188;2022-09-09T13:32:04;3.15;;;1.80;;
9940;SDS011;5009;50.656;7.188;2022-09-09T13:34:33;1.88;;;1.30;;
9940;SDS011;5009;50.656;7.188;2022-09-09T13:37:03;3.92;;;1.52;;
9940;SDS011;5009;50.656;7.188;2022-09-09T13:39:32;2.08;;;1.20;;
9940;SDS011;5009;50.656;7.188;2022-09-09T13:42:00;1.90;;;1.13;;
9940;SDS011;5009;50.656;7.188;2022-09-09T13:44:35;4.43;;;1.45;;
9940;SDS011;5009;50.656;7.188;2022-09-09T13:47:05;4.18;;;1.50;;
9940;SDS011;5009;50.656;7.188;2022-09-09T13:49:33;2.58;;;1.75;;
9940;SDS011;5009;50.656;7.188;2022-09-09T13:52:09;3.60;;;1.33;;
9940;SDS011;5009;50.656;7.188;2022-09-09T13:54:36;1.80;;;1.30;;
9940;SDS011;5009;50.656;7.188;2022-09-09T13:57:02;3.05;;;1.50;;
9940;SDS011;5009;50.656;7.188;2022-09-09T13:59:29;2.13;;;1.48;;
9940;SDS011;5009;50.656;7.188;2022-09-09T14:01:55;1.98;;;1.23;;
9940;SDS011;5009;50.656;7.188;2022-09-09T14:04:21;2.85;;;1.42;;
9940;SDS011;5009;50.656;7.188;2022-09-09T14:06:47;3.08;;;1.42;;
9940;SDS011;5009;50.656;7.188;2022-09-09T14:09:18;2.20;;;1.30;;
9940;SDS011;5009;50.656;7.188;2022-09-09T14:11:44;2.35;;;1.55;;
9940;SDS011;5009;50.656;7.188;2022-09-09T14:14:11;1.85;;;1.38;;
9940;SDS011;5009;50.656;7.188;2022-09-09T14:16:36;1.88;;;1.13;;
9940;SDS011;5009;50.656;7.188;2022-09-09T14:19:03;1.70;;;1.25;;
9940;SDS011;5009;50.656;7.188;2022-09-09T14:21:29;1.30;;;1.13;;
9940;SDS011;5009;50.656;7.188;2022-09-09T14:23:54;2.47;;;1.33;;
9940;SDS011;5009;50.656;7.188;2022-09-09T14:26:23;2.90;;;1.30;;
9940;SDS011;5009;50.656;7.188;2022-09-09T14:28:49;2.22;;;1.13;;
9940;SDS011;5009;50.656;7.188;2022-09-09T14:31:15;1.25;;;1.15;;
9940;SDS011;5009;50.656;7.188;2022-09-09T14:33:42;2.15;;;1.17;;
9940;SDS011;5009;50.656;7.188;2022-09-09T14:36:08;2.90;;;1.20;;
9940;SDS011;5009;50.656;7.188;2022-09-09T14:38:35;3.20;;;1.13;;
9940;SDS011;5009;50.656;7.188;2022-09-09T14:41:06;2.55;;;1.27;;
9940;SDS011;5009;50.656;7.188;2022-09-09T14:43:37;1.60;;;1.30;;
9940;SDS011;5009;50.656;7.188;2022-09-09T14:46:06;1.85;;;1.50;;
9940;SDS011;5009;50.656;7.188;2022-09-09T14:48:33;1.75;;;1.00;;
9940;SDS011;5009;50.656;7.188;2022-09-09T14:51:07;1.40;;;1.25;;
9940;SDS011;5009;50.656;7.188;2022-09-09T14:53:32;2.45;;;1.15;;
9940;SDS011;5009;50.656;7.188;2022-09-09T14:58:39;3.70;;;1.17;;
9940;SDS011;5009;50.656;7.188;2022-09-09T15:01:05;2.65;;;1.58;;
9940;SDS011;5009;50.656;7.188;2022-09-09T15:03:32;1.95;;;1.30;;
9940;SDS011;5009;50.656;7.188;2022-09-09T15:06:04;2.55;;;1.23;;
9940;SDS011;5009;50.656;7.188;2022-09-09T15:08:31;2.03;;;1.27;;
9940;SDS011;5009;50.656;7.188;2022-09-09T15:11:00;2.47;;;1.33;;
9940;SDS011;5009;50.656;7.188;2022-09-09T15:13:27;2.10;;;1.50;;
9940;SDS011;5009;50.656;7.188;2022-09-09T15:15:53;2.75;;;1.65;;
9940;SDS011;5009;50.656;7.188;2022-09-09T15:18:19;1.92;;;1.15;;
9940;SDS011;5009;50.656;7.188;2022-09-09T15:20:45;2.58;;;1.33;;
9940;SDS011;5009;50.656;7.188;2022-09-09T15:23:11;2.45;;;1.50;;
9940;SDS011;5009;50.656;7.188;2022-09-09T15:25:37;2.05;;;1.42;;
9940;SDS011;5009;50.656;7.188;2022-09-09T15:28:03;2.00;;;1.55;;
9940;SDS011;5009;50.656;7.188;2022-09-09T15:30:28;1.70;;;1.17;;
9940;SDS011;5009;50.656;7.188;2022-09-09T15:32:54;6.03;;;1.50;;
9940;SDS011;5009;50.656;7.188;2022-09-09T15:35:19;1.95;;;1.13;;
9940;SDS011;5009;50.656;7.188;2022-09-09T15:37:45;2.83;;;1.83;;
9940;SDS011;5009;50.656;7.188;2022-09-09T15:40:11;2.63;;;1.30;;
9940;SDS011;5009;50.656;7.188;2022-09-09T15:42:36;4.93;;;1.65;;
9940;SDS011;5009;50.656;7.188;2022-09-09T15:45:02;3.83;;;1.30;;
9940;SDS011;5009;50.656;7.188;2022-09-09T15:47:30;2.58;;;1.40;;
9940;SDS011;5009;50.656;7.188;2022-09-09T15:49:55;2.05;;;1.05;;
9940;SDS011;5009;50.656;7.188;2022-09-09T15:52:21;1.67;;;1.20;;
9940;SDS011;5009;50.656;7.188;2022-09-09T15:54:46;2.40;;;1.38;;
9940;SDS011;5009;50.656;7.188;2022-09-09T15:57:12;1.52;;;1.10;;
9940;SDS011;5009;50.656;7.188;2022-09-09T15:59:38;4.45;;;1.50;;
9940;SDS011;5009;50.656;7.188;2022-09-09T16:02:05;1.85;;;1.20;;
9940;SDS011;5009;50.656;7.188;2022-09-09T16:04:31;3.15;;;1.40;;
9940;SDS011;5009;50.656;7.188;2022-09-09T16:06:59;2.03;;;1.35;;
9940;SDS011;5009;50.656;7.188;2022-09-09T16:09:29;2.30;;;1.33;;
9940;SDS011;5009;50.656;7.188;2022-09-09T16:11:56;1.23;;;1.02;;
9940;SDS011;5009;50.656;7.188;2022-09-09T16:14:23;1.85;;;1.30;;
9940;SDS011;5009;50.656;7.188;2022-09-09T16:16:50;2.40;;;1.73;;
9940;SDS011;5009;50.656;7.188;2022-09-09T16:19:16;1.90;;;1.38;;
9940;SDS011;5009;50.656;7.188;2022-09-09T16:21:42;2.03;;;1.35;;
9940;SDS011;5009;50.656;7.188;2022-09-09T16:24:10;1.20;;;1.10;;
9940;SDS011;5009;50.656;7.188;2022-09-09T16:26:39;1.42;;;1.20;;
9940;SDS011;5009;50.656;7.188;2022-09-09T16:29:06;3.20;;;1.35;;
9940;SDS011;5009;50.656;7.188;2022-09-09T16:31:31;2.70;;;1.20;;
9940;SDS011;5009;50.656;7.188;2022-09-09T16:33:57;2.63;;;1.33;;
9940;SDS011;5009;50.656;7.188;2022-09-09T16:36:33;3.40;;;1.25;;
9940;SDS011;5009;50.656;7.188;2022-09-09T16:39:03;2.85;;;1.67;;
9940;SDS011;5009;50.656;7.188;2022-09-09T16:41:31;3.53;;;1.35;;
9940;SDS011;5009;50.656;7.188;2022-09-09T16:44:02;2.97;;;1.25;;
9940;SDS011;5009;50.656;7.188;2022-09-09T16:46:29;3.10;;;1.80;;
9940;SDS011;5009;50.656;7.188;2022-09-09T16:48:57;2.00;;;1.30;;
9940;SDS011;5009;50.656;7.188;2022-09-09T16:51:25;2.33;;;1.58;;
9940;SDS011;5009;50.656;7.188;2022-09-09T16:53:52;2.95;;;1.63;;
9940;SDS011;5009;50.656;7.188;2022-09-09T16:56:20;3.65;;;1.67;;
9940;SDS011;5009;50.656;7.188;2022-09-09T16:58:54;2.20;;;1.30;;
9940;SDS011;5009;50.656;7.188;2022-09-09T17:01:24;2.63;;;1.73;;
9940;SDS011;5009;50.656;7.188;2022-09-09T17:03:55;3.33;;;1.63;;
9940;SDS011;5009;50.656;7.188;2022-09-09T17:06:21;2.45;;;1.13;;
9940;SDS011;5009;50.656;7.188;2022-09-09T17:08:53;1.67;;;1.17;;
9940;SDS011;5009;50.656;7.188;2022-09-09T17:11:19;3.60;;;1.50;;
9940;SDS011;5009;50.656;7.188;2022-09-09T17:13:45;2.65;;;1.42;;
9940;SDS011;5009;50.656;7.188;2022-09-09T17:16:12;2.08;;;1.38;;
9940;SDS011;5009;50.656;7.188;2022-09-09T17:18:39;3.20;;;1.70;;
9940;SDS011;5009;50.656;7.188;2022-09-09T17:21:06;2.45;;;1.30;;
9940;SDS011;5009;50.656;7.188;2022-09-09T17:23:37;1.52;;;1.42;;
9940;SDS011;5009;50.656;7.188;2022-09-09T17:26:03;4.38;;;1.85;;
9940;SDS011;5009;50.656;7.188;2022-09-09T17:28:32;2.53;;;1.65;;
9940;SDS011;5009;50.656;7.188;2022-09-09T17:30:59;2.90;;;1.50;;
9940;SDS011;5009;50.656;7.188;2022-09-09T17:33:29;3.95;;;1.33;;